Time;durP1;ratioP1;P1;durP2;ratioP2;P2;SDS_P1;SDS_P2;PMS_P1;PMS_P2;Temp;Humidity;BMP_temperature;BMP_pressure;BME280_temperature;BME280_humidity;BME280_pressure;Samples;Min_cycle;Max_cycle;Signal;HPM_P1;HPM_P2
2021/01/23 00:01:02;;;;;;;;;;;;;;;15.95;40.67;98052.22;4400359;32;20336;-44
2021/01/23 00:03:28;;;;;;;;;;;;;;;16.02;40.56;98050.44;4399490;32;20618;-44
2021/01/23 00:05:54;;;;;;;;;;;;;;;15.96;40.63;98051.34;4402384;32;19972;-52
2021/01/23 00:08:20;;;;;;;;;;;;;;;16.06;40.42;98052.19;4406667;32;19992;-48
2021/01/23 00:10:45;;;;;;;;;;;;;;;16.08;40.34;98052.16;4401070;32;19989;-49
2021/01/23 00:13:11;;;;;;;;;;;;;;;16.20;39.95;98057.31;4401682;32;20394;-46
2021/01/23 00:15:37;;;;;;;;;;;;;;;16.20;39.97;98062.56;4401901;32;19974;-48
2021/01/23 00:18:03;;;;;;;;;;;;;;;16.30;39.70;98069.50;4399987;32;20343;-51
2021/01/23 00:20:29;;;;;;;;;;;;;;;16.34;39.58;98057.22;4401245;32;19954;-45
2021/01/23 00:22:55;;;;;;;;;;;;;;;16.33;39.61;98072.97;4400466;32;20564;-47
2021/01/23 00:25:21;;;;;;;;;;;;;;;16.35;39.56;98066.84;4400929;32;20347;-46
2021/01/23 00:27:47;;;;;;;;;;;;;;;16.39;39.58;98072.94;4400435;32;19961;-45
2021/01/23 00:30:13;;;;;;;;;;;;;;;16.36;39.56;98072.94;4400793;32;20265;-46
2021/01/23 00:32:38;;;;;;;;;;;;;;;16.37;39.55;98079.97;4405249;32;19958;-48
2021/01/23 00:35:04;;;;;;;;;;;;;;;16.36;39.59;98078.19;4404206;32;19965;-49
2021/01/23 00:37:30;;;;;;;;;;;;;;;16.34;39.68;98085.22;4407169;32;19958;-44
2021/01/23 00:39:56;;;;;;;;;;;;;;;16.32;39.72;98084.38;4407714;32;19950;-48
2021/01/23 00:42:22;;;;;;;;;;;;;;;16.30;39.75;98079.16;4404617;32;19950;-48
2021/01/23 00:44:48;;;;;;;;;;;;;;;16.09;40.24;98091.53;4404337;32;20317;-46
2021/01/23 00:47:14;;;;;;;;;;;;;;;16.10;40.30;98088.03;4403891;32;19951;-43
2021/01/23 00:49:39;;;;;;;;;;;;;;;15.98;40.65;98091.56;4401412;32;20550;-47
2021/01/23 00:52:05;;;;;;;;;;;;;;;16.03;40.55;98091.56;4403132;32;19982;-45
2021/01/23 00:54:31;;;;;;;;;;;;;;;16.06;40.42;98095.91;4403933;32;19968;-47
2021/01/23 00:56:57;;;;;;;;;;;;;;;16.16;40.06;98097.63;4416367;32;19968;-46
2021/01/23 00:59:23;;;;;;;;;;;;;;;16.27;39.87;98095.78;4412253;32;20052;-47
2021/01/23 01:01:49;;;;;;;;;;;;;;;16.28;39.86;98102.78;4404668;32;20774;-47
2021/01/23 01:04:15;;;;;;;;;;;;;;;16.24;39.86;98095.81;4403844;32;19985;-49
2021/01/23 01:06:41;;;;;;;;;;;;;;;16.16;40.05;98102.87;4404088;32;19955;-47
2021/01/23 01:09:07;;;;;;;;;;;;;;;16.24;39.88;98106.31;4393123;32;19954;-49
2021/01/23 01:11:32;;;;;;;;;;;;;;;16.13;40.12;98103.75;4416282;32;20010;-46
2021/01/23 01:13:58;;;;;;;;;;;;;;;16.21;39.95;98111.56;4417142;32;20354;-49
2021/01/23 01:16:25;;;;;;;;;;;;;;;16.26;39.74;98115.06;4404427;32;20029;-46
2021/01/23 01:18:51;;;;;;;;;;;;;;;16.32;39.61;98115.88;4417775;32;20283;-49
2021/01/23 01:21:17;;;;;;;;;;;;;;;16.26;39.77;98111.53;4403732;32;19965;-51
2021/01/23 01:23:42;;;;;;;;;;;;;;;16.32;39.63;98114.16;4403913;32;19989;-47
2021/01/23 01:26:08;;;;;;;;;;;;;;;16.24;39.66;98111.56;4403617;32;19951;-45
2021/01/23 01:28:34;;;;;;;;;;;;;;;16.31;39.68;98117.66;4403935;32;19958;-45
2021/01/23 01:31:00;;;;;;;;;;;;;;;16.35;39.50;98114.12;4403257;32;19991;-47
2021/01/23 01:33:26;;;;;;;;;;;;;;;16.39;39.45;98122.84;4403792;32;19965;-45
2021/01/23 01:35:52;;;;;;;;;;;;;;;16.41;39.40;98123.72;4403711;32;19954;-45
2021/01/23 01:38:18;;;;;;;;;;;;;;;16.37;39.39;98128.09;4397295;32;20361;-47
2021/01/23 01:40:44;;;;;;;;;;;;;;;16.28;39.65;98113.28;4399148;32;19969;-48
2021/01/23 01:43:09;;;;;;;;;;;;;;;16.33;39.49;98115.00;4412185;32;19954;-44
2021/01/23 01:45:35;;;;;;;;;;;;;;;16.37;39.51;98116.75;4409540;32;20065;-44
2021/01/23 01:48:01;;;;;;;;;;;;;;;16.36;39.42;98121.09;4404000;32;19965;-45
2021/01/23 01:50:27;;;;;;;;;;;;;;;16.38;39.42;98113.22;4402915;32;19958;-47
2021/01/23 01:52:53;;;;;;;;;;;;;;;16.32;39.56;98118.50;4402713;32;19973;-47
2021/01/23 01:55:19;;;;;;;;;;;;;;;16.26;39.65;98120.31;4403027;32;19951;-44
2021/01/23 01:57:45;;;;;;;;;;;;;;;16.34;39.50;98127.25;4403910;32;19985;-48
2021/01/23 02:00:11;;;;;;;;;;;;;;;16.34;39.50;98116.75;4402692;32;20279;-46
2021/01/23 02:02:37;;;;;;;;;;;;;;;16.27;39.68;98122.06;4403416;32;20051;-49
2021/01/23 02:05:03;;;;;;;;;;;;;;;16.27;39.67;98126.41;4402820;32;19954;-45
2021/01/23 02:07:28;;;;;;;;;;;;;;;16.25;39.68;98139.56;4403006;32;19963;-49
2021/01/23 02:09:54;;;;;;;;;;;;;;;16.28;39.61;98129.03;4390294;32;19974;-45
2021/01/23 02:12:20;;;;;;;;;;;;;;;16.24;39.68;98140.47;4402880;32;20015;-45
2021/01/23 02:14:46;;;;;;;;;;;;;;;16.22;39.81;98136.94;4402713;32;19985;-46
2021/01/23 02:17:12;;;;;;;;;;;;;;;16.08;40.10;98144.03;4403030;32;19966;-47
2021/01/23 02:19:38;;;;;;;;;;;;;;;16.08;40.15;98151.91;4402821;32;20013;-45
2021/01/23 02:22:04;;;;;;;;;;;;;;;16.15;39.96;98153.62;4402259;32;19988;-46
2021/01/23 02:24:30;;;;;;;;;;;;;;;16.14;39.95;98157.16;4403389;32;20302;-44
2021/01/23 02:26:56;;;;;;;;;;;;;;;16.23;39.77;98158.84;4403335;32;19993;-47
2021/01/23 02:29:22;;;;;;;;;;;;;;;16.24;39.67;98158.84;4402240;32;19992;-48
2021/01/23 02:31:48;;;;;;;;;;;;;;;16.28;39.61;98155.31;4409148;32;19954;-46
2021/01/23 02:34:14;;;;;;;;;;;;;;;16.30;39.54;98144.81;4417995;32;19980;-49
2021/01/23 02:36:40;;;;;;;;;;;;;;;16.32;39.48;98150.91;4406334;32;20415;-45
2021/01/23 02:39:06;;;;;;;;;;;;;;;16.31;39.46;98159.69;4392945;32;20590;-47
2021/01/23 02:41:32;;;;;;;;;;;;;;;16.34;39.42;98161.38;4397519;32;20002;-47
2021/01/23 02:43:57;;;;;;;;;;;;;;;16.33;39.47;98159.66;4402647;32;20357;-46
2021/01/23 02:46:23;;;;;;;;;;;;;;;16.36;39.36;98157.00;4401737;32;20006;-52
2021/01/23 02:48:49;;;;;;;;;;;;;;;16.36;39.39;98157.00;4401289;32;19965;-47
2021/01/23 02:51:15;;;;;;;;;;;;;;;16.40;39.23;98161.38;4402241;32;20335;-48
2021/01/23 02:53:41;;;;;;;;;;;;;;;16.36;39.28;98178.00;4401493;32;19960;-45
2021/01/23 02:56:07;;;;;;;;;;;;;;;16.32;39.35;98186.81;4402366;32;19955;-47
2021/01/23 02:58:33;;;;;;;;;;;;;;;16.35;39.26;98181.53;4402720;32;19974;-45
2021/01/23 03:00:59;;;;;;;;;;;;;;;16.33;39.34;98185.91;4409628;32;20273;-45
2021/01/23 03:03:25;;;;;;;;;;;;;;;16.34;39.30;98182.41;4402414;32;19954;-46
2021/01/23 03:05:51;;;;;;;;;;;;;;;16.27;39.44;98185.09;4406525;32;19958;-46
2021/01/23 03:08:17;;;;;;;;;;;;;;;16.34;39.40;98185.03;4398659;32;20331;-51
2021/01/23 03:10:43;;;;;;;;;;;;;;;16.35;39.26;98186.78;4388259;32;19947;-45
2021/01/23 03:13:09;;;;;;;;;;;;;;;16.30;39.36;98195.56;4402401;32;19954;-46
2021/01/23 03:15:35;;;;;;;;;;;;;;;16.32;39.34;98197.31;4402366;32;20638;-48
2021/01/23 03:18:01;;;;;;;;;;;;;;;16.34;39.35;98198.16;4402566;32;19961;-49
2021/01/23 03:20:27;;;;;;;;;;;;;;;16.36;39.26;98196.41;4401590;32;20001;-44
2021/01/23 03:22:53;;;;;;;;;;;;;;;16.34;39.26;98204.31;4400734;32;19970;-47
2021/01/23 03:25:19;;;;;;;;;;;;;;;16.25;39.55;98202.63;4401517;32;20351;-48
2021/01/23 03:27:44;;;;;;;;;;;;;;;16.23;39.57;98203.50;4401427;32;19982;-46
2021/01/23 03:30:10;;;;;;;;;;;;;;;16.18;39.59;98210.53;4399451;32;20004;-45
2021/01/23 03:32:36;;;;;;;;;;;;;;;16.11;39.75;98212.28;4402154;32;20549;-46
2021/01/23 03:35:02;;;;;;;;;;;;;;;16.05;39.89;98213.22;4409131;32;19958;-50
2021/01/23 03:37:28;;;;;;;;;;;;;;;16.10;39.86;98210.53;4406705;32;20591;-46
2021/01/23 03:39:54;;;;;;;;;;;;;;;15.84;40.49;98208.84;4392500;32;19969;-46
2021/01/23 03:42:20;;;;;;;;;;;;;;;15.71;40.83;98208.91;4398474;32;20248;-46
2021/01/23 03:44:46;;;;;;;;;;;;;;;15.83;40.54;98201.87;4417436;32;19986;-45
2021/01/23 03:47:11;;;;;;;;;;;;;;;16.04;40.09;98207.97;4416508;32;19950;-45
2021/01/23 03:49:37;;;;;;;;;;;;;;;16.06;40.03;98203.56;4415027;32;20000;-50
2021/01/23 03:52:03;;;;;;;;;;;;;;;15.98;40.10;98196.59;4411313;32;19995;-48
2021/01/23 03:54:29;;;;;;;;;;;;;;;16.14;39.75;98204.41;4402020;32;20018;-44
2021/01/23 03:56:55;;;;;;;;;;;;;;;16.22;39.54;98197.34;4401560;32;20386;-46
2021/01/23 03:59:21;;;;;;;;;;;;;;;16.26;39.49;98193.84;4401277;32;19946;-44
2021/01/23 04:01:47;;;;;;;;;;;;;;;16.25;39.40;98202.63;4401822;32;19950;-48
2021/01/23 04:04:13;;;;;;;;;;;;;;;16.28;39.33;98197.34;4413462;32;20313;-47
2021/01/23 04:06:38;;;;;;;;;;;;;;;16.29;39.30;98198.19;4418161;32;19954;-47
2021/01/23 04:09:05;;;;;;;;;;;;;;;16.33;39.25;98185.91;4403777;32;19953;-47
2021/01/23 04:11:30;;;;;;;;;;;;;;;16.33;39.27;98188.53;4391228;32;20035;-46
2021/01/23 04:13:56;;;;;;;;;;;;;;;16.34;39.18;98185.91;4404995;32;19950;-47
2021/01/23 04:16:22;;;;;;;;;;;;;;;16.36;39.05;98178.00;4404273;32;19992;-46
2021/01/23 04:18:48;;;;;;;;;;;;;;;16.32;39.15;98186.81;4412849;32;19957;-45
2021/01/23 04:21:14;;;;;;;;;;;;;;;16.33;39.17;98184.19;4419750;32;20290;-45
2021/01/23 04:23:40;;;;;;;;;;;;;;;16.34;39.12;98191.19;4407326;32;19954;-48
2021/01/23 04:26:06;;;;;;;;;;;;;;;16.35;39.12;98186.78;4404753;32;20015;-44
2021/01/23 04:28:31;;;;;;;;;;;;;;;16.26;39.27;98188.59;4404366;32;20012;-47
2021/01/23 04:30:58;;;;;;;;;;;;;;;16.27;39.32;98181.56;4404049;32;19950;-50
2021/01/23 04:33:23;;;;;;;;;;;;;;;16.29;39.19;98178.06;4404439;32;20026;-45
2021/01/23 04:35:49;;;;;;;;;;;;;;;16.30;39.16;98163.19;4405590;32;20283;-46
2021/01/23 04:38:15;;;;;;;;;;;;;;;16.28;39.22;98172.81;4410571;32;20013;-46
2021/01/23 04:40:41;;;;;;;;;;;;;;;16.11;39.64;98170.28;4401589;32;19955;-47
2021/01/23 04:43:07;;;;;;;;;;;;;;;15.96;40.01;98177.34;4396370;32;20846;-45
2021/01/23 04:45:33;;;;;;;;;;;;;;;15.72;40.63;98181.78;4404581;32;19984;-49
2021/01/23 04:47:59;;;;;;;;;;;;;;;15.57;40.98;98182.72;4404563;32;19951;-47
2021/01/23 04:50:25;;;;;;;;;;;;;;;15.48;41.21;98181.84;4403409;32;20373;-48
2021/01/23 04:52:51;;;;;;;;;;;;;;;15.44;41.33;98187.13;4404206;32;19950;-45
2021/01/23 04:55:17;;;;;;;;;;;;;;;15.55;41.08;98188.84;4403913;32;19951;-46
2021/01/23 04:57:43;;;;;;;;;;;;;;;15.57;40.98;98185.34;4413457;32;19958;-49
2021/01/23 05:00:09;;;;;;;;;;;;;;;15.66;40.78;98191.41;4403674;32;19985;-47
2021/01/23 05:02:34;;;;;;;;;;;;;;;15.82;40.43;98197.50;4404329;32;20344;-47
2021/01/23 05:05:02;;;;;;;;;;;;;;;15.71;40.62;98195.78;4403955;32;19950;-47
2021/01/23 05:07:28;;;;;;;;;;;;;;;15.55;40.97;98199.34;4403918;32;19986;-48
2021/01/23 05:09:54;;;;;;;;;;;;;;;15.53;41.05;98201.94;4396371;32;19992;-44
2021/01/23 05:12:20;;;;;;;;;;;;;;;15.79;40.41;98202.78;4397375;32;20439;-44
2021/01/23 05:14:46;;;;;;;;;;;;;;;15.92;40.11;98198.38;4407182;32;20294;-45
2021/01/23 05:17:11;;;;;;;;;;;;;;;15.97;39.91;98193.97;4418676;32;19939;-44
2021/01/23 05:19:37;;;;;;;;;;;;;;;16.06;39.72;98190.44;4407557;32;19947;-43
2021/01/23 05:22:03;;;;;;;;;;;;;;;16.11;39.58;98188.66;4404526;32;20007;-44
2021/01/23 05:24:29;;;;;;;;;;;;;;;16.14;39.52;98180.78;4405024;32;19957;-46
2021/01/23 05:26:55;;;;;;;;;;;;;;;16.20;39.31;98183.34;4405458;32;19989;-48
2021/01/23 05:29:21;;;;;;;;;;;;;;;16.21;39.27;98177.22;4403897;32;19950;-48
2021/01/23 05:31:47;;;;;;;;;;;;;;;16.18;39.28;98172.00;4404679;32;19997;-50
2021/01/23 05:34:12;;;;;;;;;;;;;;;16.23;39.21;98162.31;4408321;32;19997;-46
2021/01/23 05:36:39;;;;;;;;;;;;;;;16.20;39.29;98175.47;4400643;32;19958;-47
2021/01/23 05:39:04;;;;;;;;;;;;;;;16.20;39.24;98172.84;4395507;32;20050;-46
2021/01/23 05:41:30;;;;;;;;;;;;;;;16.16;39.33;98168.50;4393512;32;19955;-44
2021/01/23 05:43:56;;;;;;;;;;;;;;;16.23;39.17;98171.97;4399498;32;19959;-47
2021/01/23 05:46:22;;;;;;;;;;;;;;;16.26;39.08;98172.84;4402574;32;19943;-48
2021/01/23 05:48:48;;;;;;;;;;;;;;;16.27;39.08;98173.69;4403600;32;20365;-46
2021/01/23 05:51:14;;;;;;;;;;;;;;;16.26;39.04;98178.09;4403366;32;19961;-48
2021/01/23 05:53:40;;;;;;;;;;;;;;;16.26;39.08;98171.94;4403550;32;19950;-46
2021/01/23 05:56:06;;;;;;;;;;;;;;;16.24;39.12;98164.09;4401421;32;20008;-43
2021/01/23 05:58:31;;;;;;;;;;;;;;;15.98;39.75;98172.09;4403893;32;19959;-47
2021/01/23 06:00:57;;;;;;;;;;;;;;;15.76;40.28;98171.28;4403937;32;19997;-54
2021/01/23 06:03:23;;;;;;;;;;;;;;;15.55;40.74;98170.47;4404647;32;20045;-45
2021/01/23 06:05:49;;;;;;;;;;;;;;;15.41;41.06;98176.62;4403120;32;19966;-46
2021/01/23 06:08:15;;;;;;;;;;;;;;;15.29;41.41;98174.03;4401872;32;20047;-44
2021/01/23 06:10:41;;;;;;;;;;;;;;;15.34;41.29;98177.50;4402896;32;19962;-44
2021/01/23 06:13:07;;;;;;;;;;;;;;;15.35;41.28;98178.41;4402360;32;19970;-46
2021/01/23 06:15:33;;;;;;;;;;;;;;;15.31;41.40;98185.41;4403126;32;19961;-46
2021/01/23 06:17:59;;;;;;;;;;;;;;;15.36;41.25;98183.62;4403639;32;19961;-47
2021/01/23 06:20:25;;;;;;;;;;;;;;;15.40;41.13;98188.00;4401458;32;19943;-47
2021/01/23 06:22:50;;;;;;;;;;;;;;;15.37;41.15;98190.66;4402061;32;20351;-45
2021/01/23 06:25:16;;;;;;;;;;;;;;;15.49;40.88;98188.84;4402444;32;19950;-44
2021/01/23 06:27:42;;;;;;;;;;;;;;;15.39;41.10;98188.88;4403505;32;19963;-44
2021/01/23 06:30:08;;;;;;;;;;;;;;;15.25;41.44;98190.62;4398005;32;19995;-49
2021/01/23 06:32:34;;;;;;;;;;;;;;;15.25;41.39;98199.38;4403555;32;19977;-47
2021/01/23 06:35:00;;;;;;;;;;;;;;;15.48;40.91;98197.59;4403842;32;20415;-46
2021/01/23 06:37:28;;;;;;;;;;;;;;;15.46;40.89;98201.09;4400989;32;19943;-44
2021/01/23 06:39:54;;;;;;;;;;;;;;;15.56;40.72;98219.44;4400931;32;19958;-43
2021/01/23 06:42:20;;;;;;;;;;;;;;;15.70;40.31;98217.66;4394829;32;19946;-47
2021/01/23 06:44:45;;;;;;;;;;;;;;;15.82;40.06;98214.12;4396476;32;19982;-46
2021/01/23 06:47:11;;;;;;;;;;;;;;;15.92;39.82;98228.13;4395204;32;19959;-45
2021/01/23 06:49:37;;;;;;;;;;;;;;;16.02;39.54;98215.81;4397827;32;19950;-47
2021/01/23 06:52:03;;;;;;;;;;;;;;;16.06;39.41;98214.06;4401372;32;20399;-46
2021/01/23 06:54:29;;;;;;;;;;;;;;;16.08;39.34;98221.06;4403173;32;19950;-44
2021/01/23 06:56:55;;;;;;;;;;;;;;;16.14;39.19;98225.41;4402830;32;19962;-46
2021/01/23 06:59:21;;;;;;;;;;;;;;;16.07;39.32;98219.31;4401597;32;19962;-47
2021/01/23 07:01:47;;;;;;;;;;;;;;;16.11;39.22;98209.66;4403034;32;20341;-48
2021/01/23 07:04:12;;;;;;;;;;;;;;;16.13;39.14;98218.44;4402630;32;20332;-47
2021/01/23 07:06:38;;;;;;;;;;;;;;;16.18;39.05;98219.25;4403012;32;19959;-49
2021/01/23 07:09:04;;;;;;;;;;;;;;;16.17;39.05;98225.41;4401621;32;19961;-45
2021/01/23 07:11:30;;;;;;;;;;;;;;;16.15;39.14;98221.91;4400443;32;20290;-47
2021/01/23 07:13:57;;;;;;;;;;;;;;;15.89;39.73;98217.63;4402335;32;19950;-45
2021/01/23 07:16:22;;;;;;;;;;;;;;;15.76;40.06;98218.53;4402243;32;19988;-48
2021/01/23 07:18:48;;;;;;;;;;;;;;;15.73;40.13;98224.66;4400068;32;20347;-50
2021/01/23 07:21:14;;;;;;;;;;;;;;;15.45;40.74;98220.34;4402477;32;20039;-45
2021/01/23 07:23:40;;;;;;;;;;;;;;;15.34;41.04;98214.22;4401544;32;19985;-45
2021/01/23 07:26:06;;;;;;;;;;;;;;;15.28;41.19;98217.72;4400084;32;20008;-47
2021/01/23 07:28:32;;;;;;;;;;;;;;;15.26;41.22;98210.75;4392071;32;19969;-46
2021/01/23 07:30:58;;;;;;;;;;;;;;;15.26;41.24;98213.38;4395721;32;20010;-44
2021/01/23 07:33:24;;;;;;;;;;;;;;;15.39;40.90;98215.13;4396011;32;19994;-48
2021/01/23 07:35:50;;;;;;;;;;;;;;;15.42;40.78;98209.84;4395902;32;19957;-45
2021/01/23 07:38:16;;;;;;;;;;;;;;;15.50;40.66;98211.59;4393962;32;19934;-46
2021/01/23 07:40:42;;;;;;;;;;;;;;;15.45;40.74;98215.09;4396513;32;19969;-47
2021/01/23 07:43:08;;;;;;;;;;;;;;;15.59;40.41;98211.56;4391620;32;19997;-49
2021/01/23 07:45:33;;;;;;;;;;;;;;;15.71;40.07;98210.66;4389622;32;19988;-45
2021/01/23 07:47:59;;;;;;;;;;;;;;;15.78;39.94;98216.78;4390254;32;19972;-47
2021/01/23 07:50:25;;;;;;;;;;;;;;;15.70;40.12;98212.41;4404634;32;19993;-53
2021/01/23 07:52:51;;;;;;;;;;;;;;;15.67;40.21;98208.91;4401038;32;19946;-51
2021/01/23 07:55:17;;;;;;;;;;;;;;;15.43;40.73;98201.09;4408504;32;19991;-52
2021/01/23 07:57:43;;;;;;;;;;;;;;;15.18;41.30;98190.66;4401029;32;19958;-51
2021/01/23 08:00:09;;;;;;;;;;;;;;;15.21;41.31;98194.16;4386865;32;19958;-53
2021/01/23 08:02:35;;;;;;;;;;;;;;;15.54;40.55;98197.59;4395666;32;19968;-55
2021/01/23 08:05:01;;;;;;;;;;;;;;;15.60;40.41;98192.31;4413097;32;20003;-51
2021/01/23 08:07:29;;;;;;;;;;;;;;;15.70;40.20;98193.19;4393492;32;19955;-53
2021/01/23 08:09:54;;;;;;;;;;;;;;;15.69;40.16;98188.81;4407707;32;20033;-54
2021/01/23 08:12:21;;;;;;;;;;;;;;;15.91;39.69;98197.50;4395214;32;19989;-52
2021/01/23 08:14:46;;;;;;;;;;;;;;;15.87;39.70;98199.22;4386935;32;19958;-53
2021/01/23 08:17:12;;;;;;;;;;;;;;;16.02;39.38;98195.72;4378667;32;20002;-46
2021/01/23 08:19:38;;;;;;;;;;;;;;;16.08;39.26;98199.19;4382759;32;19958;-45
2021/01/23 08:22:04;;;;;;;;;;;;;;;16.13;39.13;98186.91;4385799;32;20366;-48
2021/01/23 08:24:30;;;;;;;;;;;;;;;16.13;39.12;98192.16;4389335;32;19954;-52
2021/01/23 08:26:56;;;;;;;;;;;;;;;16.12;39.11;98193.06;4381115;32;20014;-49
2021/01/23 08:29:22;;;;;;;;;;;;;;;16.12;39.15;98190.44;4399364;32;19989;-45
2021/01/23 08:31:48;;;;;;;;;;;;;;;15.83;39.80;98192.25;4394724;32;20271;-49
2021/01/23 08:34:14;;;;;;;;;;;;;;;15.68;40.22;98185.31;4398310;32;19992;-48
2021/01/23 08:36:40;;;;;;;;;;;;;;;15.68;40.20;98190.56;4392485;32;19981;-46
2021/01/23 08:39:06;;;;;;;;;;;;;;;15.55;40.51;98184.44;4396973;32;20029;-52
2021/01/23 08:41:32;;;;;;;;;;;;;;;15.50;40.68;98188.00;4406359;32;19985;-45
2021/01/23 08:43:59;;;;;;;;;;;;;;;15.63;40.38;98187.09;4394169;32;19954;-53
2021/01/23 08:46:25;;;;;;;;;;;;;;;15.52;40.67;98183.62;4392556;32;19992;-51
2021/01/23 08:48:51;;;;;;;;;;;;;;;15.39;40.88;98183.66;4408707;32;20006;-45
2021/01/23 08:51:16;;;;;;;;;;;;;;;15.52;40.65;98183.62;4401152;32;19955;-50
2021/01/23 08:53:42;;;;;;;;;;;;;;;15.59;40.60;98185.31;4396489;32;19965;-53
2021/01/23 08:56:11;;;;;;;;;;;;;;;15.71;40.43;98182.66;4392442;32;19955;-49
2021/01/23 08:58:37;;;;;;;;;;;;;;;15.66;40.43;98181.81;4394449;32;19987;-49
2021/01/23 09:01:02;;;;;;;;;;;;;;;15.64;40.51;98174.81;4410062;32;20339;-52
2021/01/23 09:03:28;;;;;;;;;;;;;;;15.64;40.48;98178.31;4398008;32;19982;-52
2021/01/23 09:05:54;;;;;;;;;;;;;;;15.69;40.27;98171.31;4393320;32;19947;-46
2021/01/23 09:08:20;;;;;;;;;;;;;;;15.88;39.83;98174.72;4399821;32;20275;-53
2021/01/23 09:10:46;;;;;;;;;;;;;;;16.07;39.40;98171.19;4403838;32;19958;-49
2021/01/23 09:13:12;;;;;;;;;;;;;;;15.99;39.63;98169.47;4401402;32;19935;-50
2021/01/23 09:15:38;;;;;;;;;;;;;;;15.94;39.78;98171.25;4393204;32;19950;-52
2021/01/23 09:18:04;;;;;;;;;;;;;;;15.90;39.85;98172.13;4395859;32;19978;-49
2021/01/23 09:20:30;;;;;;;;;;;;;;;15.88;39.92;98168.62;4395267;32;19969;-48
2021/01/23 09:22:56;;;;;;;;;;;;;;;16.05;39.55;98167.69;4397909;32;19939;-45
2021/01/23 09:25:22;;;;;;;;;;;;;;;15.88;39.97;98166.00;4395040;32;25499;-44
2021/01/23 09:27:48;;;;;;;;;;;;;;;15.72;40.32;98159.94;4392571;32;19950;-49
2021/01/23 09:30:14;;;;;;;;;;;;;;;15.62;40.53;98164.34;4390298;32;19951;-46
2021/01/23 09:32:40;;;;;;;;;;;;;;;15.80;40.15;98162.53;4397679;32;19992;-52
2021/01/23 09:35:06;;;;;;;;;;;;;;;15.74;40.30;98169.56;4396424;32;19994;-47
2021/01/23 09:37:32;;;;;;;;;;;;;;;15.74;40.28;98169.56;4399288;32;20489;-44
2021/01/23 09:39:58;;;;;;;;;;;;;;;15.77;40.23;98160.78;4389302;32;20002;-51
2021/01/23 09:42:24;;;;;;;;;;;;;;;15.54;39.15;98171.34;4390052;32;20010;-46
2021/01/23 09:44:50;;;;;;;;;;;;;;;15.28;40.90;98169.66;4402016;32;19954;-46
2021/01/23 09:47:17;;;;;;;;;;;;;;;15.52;40.43;98162.63;4402763;32;19982;-48
2021/01/23 09:49:43;;;;;;;;;;;;;;;15.67;40.08;98167.81;4402918;32;19949;-46
2021/01/23 09:52:08;;;;;;;;;;;;;;;15.56;40.26;98161.72;4386697;32;19942;-47
2021/01/23 09:54:34;;;;;;;;;;;;;;;15.48;40.44;98156.50;4404191;32;20574;-47
2021/01/23 09:57:00;;;;;;;;;;;;;;;15.35;40.74;98150.41;4401451;32;19954;-52
2021/01/23 09:59:26;;;;;;;;;;;;;;;15.32;40.87;98155.66;4400092;32;19977;-44
2021/01/23 10:01:52;;;;;;;;;;;;;;;15.22;41.08;98156.56;4406524;32;19954;-48
2021/01/23 10:04:18;;;;;;;;;;;;;;;15.22;41.12;98159.19;4404907;32;20271;-47
2021/01/23 10:06:44;;;;;;;;;;;;;;;15.23;41.16;98150.44;4401728;32;19991;-45
2021/01/23 10:09:10;;;;;;;;;;;;;;;15.18;41.27;98153.06;4397748;32;19962;-44
2021/01/23 10:11:36;;;;;;;;;;;;;;;15.27;41.12;98141.72;4401233;32;19954;-49
2021/01/23 10:14:01;;;;;;;;;;;;;;;15.35;40.93;98145.16;4401220;32;20342;-46
2021/01/23 10:16:27;;;;;;;;;;;;;;;15.33;40.95;98144.28;4400802;32;19990;-47
2021/01/23 10:18:53;;;;;;;;;;;;;;;15.29;41.04;98146.06;4401993;32;19951;-49
2021/01/23 10:21:19;;;;;;;;;;;;;;;15.29;41.09;98150.44;4403062;32;20373;-45
2021/01/23 10:23:45;;;;;;;;;;;;;;;15.42;40.79;98136.41;4392496;32;20577;-46
2021/01/23 10:26:11;;;;;;;;;;;;;;;15.48;40.67;98132.00;4403066;32;19984;-46
2021/01/23 10:28:37;;;;;;;;;;;;;;;15.44;40.77;98126.78;4402901;32;19946;-46
2021/01/23 10:31:03;;;;;;;;;;;;;;;15.47;40.70;98123.28;4400157;32;19988;-50
2021/01/23 10:33:29;;;;;;;;;;;;;;;15.58;40.46;98120.63;4413248;32;19958;-46
2021/01/23 10:35:54;;;;;;;;;;;;;;;15.73;40.10;98115.28;4403393;32;19951;-48
2021/01/23 10:38:20;;;;;;;;;;;;;;;15.87;39.72;98112.63;4401291;32;19943;-45
2021/01/23 10:40:46;;;;;;;;;;;;;;;15.98;39.48;98104.69;4403272;32;19995;-49
2021/01/23 10:43:12;;;;;;;;;;;;;;;16.02;39.36;98101.19;4402888;32;19965;-45
2021/01/23 10:45:38;;;;;;;;;;;;;;;16.08;39.25;98100.28;4403143;32;19947;-48
2021/01/23 10:48:04;;;;;;;;;;;;;;;16.10;39.24;98100.25;4403837;32;20375;-47
2021/01/23 10:50:30;;;;;;;;;;;;;;;16.14;39.11;98094.97;4402384;32;20247;-47
2021/01/23 10:52:56;;;;;;;;;;;;;;;16.16;39.08;98100.25;4402688;32;20336;-44
2021/01/23 10:55:22;;;;;;;;;;;;;;;16.20;39.04;98087.97;4399332;32;20030;-47
2021/01/23 10:57:48;;;;;;;;;;;;;;;16.21;38.99;98081.81;4399716;32;19976;-46
2021/01/23 11:00:14;;;;;;;;;;;;;;;16.23;38.95;98086.16;4400259;32;20007;-48
2021/01/23 11:02:40;;;;;;;;;;;;;;;16.24;38.93;98084.44;4402315;32;20373;-49
2021/01/23 11:05:06;;;;;;;;;;;;;;;16.23;38.92;98078.28;4400276;32;20001;-54
2021/01/23 11:07:32;;;;;;;;;;;;;;;16.19;39.06;98081.81;4400710;32;19960;-46
2021/01/23 11:09:58;;;;;;;;;;;;;;;16.12;39.25;98073.13;4401655;32;19988;-48
2021/01/23 11:12:24;;;;;;;;;;;;;;;16.15;39.18;98070.47;4399729;32;19958;-48
2021/01/23 11:14:49;;;;;;;;;;;;;;;16.05;39.49;98062.69;4399789;32;19951;-46
2021/01/23 11:17:15;;;;;;;;;;;;;;;15.78;40.04;98060.16;4402074;32;19980;-45
2021/01/23 11:19:41;;;;;;;;;;;;;;;15.74;40.17;98068.94;4400889;32;20365;-47
2021/01/23 11:22:07;;;;;;;;;;;;;;;15.85;39.97;98061.00;4402305;32;19981;-49
2021/01/23 11:24:33;;;;;;;;;;;;;;;15.94;39.80;98058.34;4400483;32;19950;-48
2021/01/23 11:26:59;;;;;;;;;;;;;;;15.97;39.70;98055.72;4398331;32;19959;-46
2021/01/23 11:29:25;;;;;;;;;;;;;;;15.96;39.72;98059.22;4388834;32;19943;-52
2021/01/23 11:31:51;;;;;;;;;;;;;;;16.02;39.60;98053.94;4399140;32;20416;-46
2021/01/23 11:34:17;;;;;;;;;;;;;;;15.95;39.78;98041.72;4387879;32;20012;-49
2021/01/23 11:36:43;;;;;;;;;;;;;;;16.07;39.52;98045.16;4400697;32;19958;-49
2021/01/23 11:39:08;;;;;;;;;;;;;;;15.99;39.68;98039.97;4393146;32;19955;-49
2021/01/23 11:41:34;;;;;;;;;;;;;;;16.12;39.37;98038.12;4386615;32;19951;-51
2021/01/23 11:44:00;;;;;;;;;;;;;;;16.16;39.26;98024.09;4383701;32;20842;-49
2021/01/23 11:46:27;;;;;;;;;;;;;;;16.16;39.32;98024.09;4400998;32;19984;-51
2021/01/23 11:48:53;;;;;;;;;;;;;;;16.18;39.29;98021.47;4395749;32;19981;-45
2021/01/23 11:51:19;;;;;;;;;;;;;;;16.19;39.27;98023.19;4399804;32;20343;-50
2021/01/23 11:53:45;;;;;;;;;;;;;;;16.23;39.15;98020.50;4402133;32;19958;-52
2021/01/23 11:56:11;;;;;;;;;;;;;;;16.29;39.04;98015.22;4398472;32;20018;-51
2021/01/23 11:58:37;;;;;;;;;;;;;;;16.27;39.09;98003.87;4394914;32;19969;-51
2021/01/23 12:01:03;;;;;;;;;;;;;;;16.20;39.24;98010.03;4391567;32;19984;-53
2021/01/23 12:03:29;;;;;;;;;;;;;;;16.20;39.29;98003.94;4394976;32;19986;-54
2021/01/23 12:05:55;;;;;;;;;;;;;;;16.29;39.06;97999.47;4387280;32;19974;-49
2021/01/23 12:08:21;;;;;;;;;;;;;;;16.30;39.02;97985.44;4379008;32;19942;-50
2021/01/23 12:10:47;;;;;;;;;;;;;;;16.32;38.99;97993.31;4380708;32;20011;-54
2021/01/23 12:13:13;;;;;;;;;;;;;;;16.36;38.95;97988.87;4380622;32;20008;-48
2021/01/23 12:15:39;;;;;;;;;;;;;;;16.30;39.08;97985.44;4383058;32;19966;-53
2021/01/23 12:18:05;;;;;;;;;;;;;;;16.32;39.03;97982.81;4379869;32;20452;-48
2021/01/23 12:20:33;;;;;;;;;;;;;;;16.30;39.11;97979.34;4381058;32;20000;-51
2021/01/23 12:22:59;;;;;;;;;;;;;;;16.30;39.14;97980.19;4381552;32;19943;-50
2021/01/23 12:25:26;;;;;;;;;;;;;;;16.36;38.99;97968.75;4382643;32;19942;-47
2021/01/23 12:27:51;;;;;;;;;;;;;;;16.32;39.12;97958.28;4383174;32;19973;-52
2021/01/23 12:30:18;;;;;;;;;;;;;;;16.34;39.08;97959.16;4383953;32;19954;-50
2021/01/23 12:32:44;;;;;;;;;;;;;;;16.35;39.04;97960.88;4405233;32;19965;-47
2021/01/23 12:35:10;;;;;;;;;;;;;;;16.34;39.12;97951.25;4413431;32;20001;-52
2021/01/23 12:37:36;;;;;;;;;;;;;;;16.28;39.21;97955.69;4401285;32;19962;-49
2021/01/23 12:40:02;;;;;;;;;;;;;;;16.27;39.25;97943.47;4402517;32;20003;-51